createdAt,value
2023-07-21T00:00:33.276Z,0.80
2023-07-21T00:03:02.856Z,0.80
2023-07-21T00:05:34.893Z,1.00
2023-07-21T00:08:05.203Z,1.17
2023-07-21T00:10:34.608Z,0.75
2023-07-21T00:13:04.113Z,1.00
2023-07-21T00:15:34.074Z,0.90
2023-07-21T00:18:05.000Z,0.63
2023-07-21T00:20:37.036Z,0.90
2023-07-21T00:23:06.428Z,0.75
2023-07-21T00:25:35.792Z,0.90
2023-07-21T00:28:05.192Z,0.90
2023-07-21T00:30:34.769Z,0.90
2023-07-21T00:33:05.234Z,0.80
2023-07-21T00:35:37.217Z,0.75
2023-07-21T00:38:06.574Z,0.80
2023-07-21T00:40:38.373Z,0.90
2023-07-21T00:43:10.004Z,0.85
2023-07-21T00:45:41.444Z,0.88
2023-07-21T00:48:11.529Z,0.95
2023-07-21T00:50:47.092Z,0.90
2023-07-21T00:53:17.577Z,0.80
2023-07-21T00:55:49.052Z,0.93
2023-07-21T00:58:18.861Z,0.95
2023-07-21T01:00:49.129Z,1.00
2023-07-21T01:03:21.600Z,0.90
2023-07-21T01:05:57.324Z,1.20
2023-07-21T01:08:27.441Z,1.00
2023-07-21T01:10:59.130Z,0.85
2023-07-21T01:13:29.221Z,1.02
2023-07-21T01:16:00.205Z,0.90
2023-07-21T01:18:30.656Z,1.10
2023-07-21T01:21:05.393Z,0.90
2023-07-21T01:23:43.299Z,0.80
2023-07-21T01:26:16.411Z,0.90
2023-07-21T01:28:47.861Z,0.68
2023-07-21T01:31:18.593Z,1.02
2023-07-21T01:33:50.424Z,0.85
2023-07-21T01:36:21.526Z,0.98
2023-07-21T01:38:54.747Z,0.90
2023-07-21T01:41:27.845Z,0.93
2023-07-21T01:43:57.389Z,0.80
2023-07-21T01:46:27.985Z,0.90
2023-07-21T01:48:57.607Z,1.00
2023-07-21T01:51:28.572Z,0.93
2023-07-21T01:54:03.982Z,0.90
2023-07-21T01:56:44.200Z,0.75
2023-07-21T01:59:16.504Z,0.80
2023-07-21T02:01:46.351Z,1.00
2023-07-21T02:04:17.629Z,0.80
2023-07-21T02:06:48.503Z,0.90
2023-07-21T02:09:20.440Z,0.90
2023-07-21T02:11:52.704Z,0.80
2023-07-21T02:14:23.504Z,0.98
2023-07-21T02:16:53.094Z,0.80
2023-07-21T02:19:22.637Z,0.90
2023-07-21T02:21:51.994Z,1.00
2023-07-21T02:24:21.466Z,0.60
2023-07-21T02:26:54.374Z,0.88
2023-07-21T02:29:23.991Z,1.00
2023-07-21T02:31:53.554Z,0.75
2023-07-21T02:34:22.961Z,0.85
2023-07-21T02:36:54.561Z,0.80
2023-07-21T02:39:23.925Z,1.30
2023-07-21T02:41:55.870Z,0.90
2023-07-21T02:44:25.214Z,0.80
2023-07-21T02:46:55.827Z,0.90
2023-07-21T02:49:25.239Z,0.90
2023-07-21T02:51:55.015Z,0.95
2023-07-21T02:54:24.401Z,0.90
2023-07-21T02:56:56.746Z,0.80
2023-07-21T02:59:28.000Z,0.90
2023-07-21T03:01:58.798Z,0.88
2023-07-21T03:04:29.681Z,1.00
2023-07-21T03:06:59.488Z,0.80
2023-07-21T03:09:29.348Z,0.93
2023-07-21T03:12:01.282Z,0.95
2023-07-21T03:14:30.658Z,0.90
2023-07-21T03:17:00.043Z,0.77
2023-07-21T03:19:32.245Z,0.82
2023-07-21T03:22:01.840Z,0.82
2023-07-21T03:24:31.244Z,1.10
2023-07-21T03:27:03.288Z,1.20
2023-07-21T03:29:32.644Z,1.38
2023-07-21T03:32:01.994Z,1.40
2023-07-21T03:34:31.484Z,0.88
2023-07-21T03:37:02.572Z,1.15
2023-07-21T03:39:32.021Z,2.03
2023-07-21T03:42:03.968Z,1.88
2023-07-21T03:44:33.349Z,1.52
2023-07-21T03:47:02.719Z,1.23
2023-07-21T03:49:32.580Z,1.10
2023-07-21T03:52:01.998Z,1.23
2023-07-21T03:54:31.418Z,1.10
2023-07-21T03:57:00.769Z,1.00
2023-07-21T03:59:33.077Z,1.25
2023-07-21T04:02:02.466Z,1.20
2023-07-21T04:04:34.278Z,0.80
2023-07-21T04:07:06.515Z,1.02
2023-07-21T04:09:36.028Z,0.98
2023-07-21T04:12:05.525Z,1.10
2023-07-21T04:14:37.601Z,1.20
2023-07-21T04:17:07.961Z,1.10
2023-07-21T04:19:37.350Z,1.20
2023-07-21T04:22:07.380Z,1.45
2023-07-21T04:24:37.056Z,1.50
2023-07-21T04:27:07.149Z,1.55
2023-07-21T04:29:40.220Z,1.50
2023-07-21T04:32:09.974Z,1.30
2023-07-21T04:34:39.347Z,1.40
2023-07-21T04:37:10.544Z,1.35
2023-07-21T04:39:39.962Z,1.83
2023-07-21T04:42:09.624Z,1.20
2023-07-21T04:44:41.650Z,1.00
2023-07-21T04:47:11.485Z,1.10
2023-07-21T04:49:41.070Z,1.20
2023-07-21T04:52:11.117Z,0.80
2023-07-21T04:54:40.556Z,1.10
2023-07-21T04:57:11.735Z,1.20
2023-07-21T04:59:44.658Z,1.30
2023-07-21T05:02:14.225Z,1.55
2023-07-21T05:04:43.841Z,1.60
2023-07-21T05:07:13.357Z,1.10
2023-07-21T05:09:42.768Z,1.17
2023-07-21T05:12:13.107Z,1.20
2023-07-21T05:14:46.165Z,1.08
2023-07-21T05:17:16.073Z,1.02
2023-07-21T05:19:45.594Z,1.10
2023-07-21T05:22:17.510Z,1.17
2023-07-21T05:24:47.309Z,1.05
2023-07-21T05:27:18.096Z,1.13
2023-07-21T05:29:50.065Z,1.10
2023-07-21T05:32:19.554Z,1.10
2023-07-21T05:34:52.107Z,1.10
2023-07-21T05:37:21.538Z,1.10
2023-07-21T05:39:50.994Z,0.90
2023-07-21T05:42:20.370Z,1.10
2023-07-21T05:44:53.066Z,1.38
2023-07-21T05:47:24.028Z,1.40
2023-07-21T05:49:57.290Z,1.55
2023-07-21T05:52:27.378Z,1.20
2023-07-21T05:54:56.889Z,1.20
2023-07-21T05:57:26.634Z,1.05
2023-07-21T05:59:59.746Z,1.20
2023-07-21T06:02:30.308Z,1.10
2023-07-21T06:04:59.750Z,0.90
2023-07-21T06:07:29.471Z,1.20
2023-07-21T06:09:58.825Z,1.20
2023-07-21T06:12:28.439Z,1.15
2023-07-21T06:15:00.933Z,1.10
2023-07-21T06:17:30.481Z,1.10
2023-07-21T06:20:00.245Z,1.30
2023-07-21T06:22:30.183Z,1.10
2023-07-21T06:24:59.875Z,1.00
2023-07-21T06:27:29.205Z,1.08
2023-07-21T06:30:01.169Z,1.02
2023-07-21T06:32:32.020Z,1.40
2023-07-21T06:37:39.196Z,0.98
2023-07-21T06:40:10.593Z,1.23
2023-07-21T06:42:40.259Z,1.25
2023-07-21T06:45:13.493Z,1.00
2023-07-21T06:47:42.825Z,1.30
2023-07-21T06:50:13.142Z,1.40
2023-07-21T06:52:43.441Z,1.10
2023-07-21T06:55:13.071Z,1.35
2023-07-21T06:57:42.432Z,1.00
2023-07-21T07:00:17.399Z,1.13
2023-07-21T07:02:50.666Z,0.98
2023-07-21T07:05:20.480Z,1.23
2023-07-21T07:07:53.549Z,1.17
2023-07-21T07:10:23.202Z,1.10
2023-07-21T07:12:53.046Z,1.13
2023-07-21T07:15:25.100Z,1.00
2023-07-21T07:17:54.513Z,1.17
2023-07-21T07:20:23.883Z,1.10
2023-07-21T07:22:53.262Z,1.02
2023-07-21T07:25:26.028Z,1.25
2023-07-21T07:27:55.639Z,1.05
2023-07-21T07:30:30.362Z,1.30
2023-07-21T07:33:00.409Z,1.25
2023-07-21T07:35:29.793Z,1.02
2023-07-21T07:37:59.183Z,1.20
2023-07-21T07:40:28.633Z,1.48
2023-07-21T07:42:57.977Z,1.20
2023-07-21T07:45:31.449Z,1.30
2023-07-21T07:48:00.844Z,1.25
2023-07-21T07:50:30.198Z,1.40
2023-07-21T07:53:01.236Z,1.25
2023-07-21T07:55:30.589Z,1.10
2023-07-21T07:58:00.369Z,1.25
2023-07-21T08:00:32.317Z,1.30
2023-07-21T08:03:02.406Z,1.40
2023-07-21T08:05:31.857Z,1.30
2023-07-21T08:08:03.993Z,1.40
2023-07-21T08:10:33.386Z,1.30
2023-07-21T08:13:05.504Z,1.40
2023-07-21T08:15:37.802Z,1.20
2023-07-21T08:18:07.218Z,1.27
2023-07-21T08:20:36.980Z,1.38
2023-07-21T08:23:15.161Z,1.25
2023-07-21T08:25:53.086Z,1.30
2023-07-21T08:28:22.448Z,1.33
2023-07-21T08:31:03.265Z,1.20
2023-07-21T08:33:32.745Z,1.45
2023-07-21T08:36:02.105Z,1.20
2023-07-21T08:38:31.557Z,1.45
2023-07-21T08:41:08.786Z,1.23
2023-07-21T08:43:38.524Z,1.40
2023-07-21T08:46:10.754Z,1.38
2023-07-21T08:48:43.299Z,1.50
2023-07-21T08:51:12.738Z,1.33
2023-07-21T08:53:42.090Z,1.10
2023-07-21T08:56:11.457Z,1.25
2023-07-21T08:58:41.004Z,1.40
2023-07-21T09:01:13.163Z,1.35
2023-07-21T09:03:48.599Z,0.95
2023-07-21T09:06:18.357Z,1.00
2023-07-21T09:08:50.244Z,1.08
2023-07-21T09:11:19.661Z,1.05
2023-07-21T09:13:55.507Z,1.17
2023-07-21T09:16:27.893Z,1.00
2023-07-21T09:18:58.415Z,1.17
2023-07-21T09:21:28.157Z,1.20
2023-07-21T09:24:04.457Z,1.10
2023-07-21T09:26:34.354Z,1.00
2023-07-21T09:29:04.041Z,1.30
2023-07-21T09:31:36.438Z,1.20
2023-07-21T09:34:10.700Z,0.90
2023-07-21T09:36:40.564Z,0.93
2023-07-21T09:39:09.927Z,1.15
2023-07-21T09:41:40.766Z,1.10
2023-07-21T09:44:12.599Z,1.00
2023-07-21T09:46:45.343Z,0.90
2023-07-21T09:49:14.869Z,0.98
2023-07-21T09:51:47.609Z,1.33
2023-07-21T09:54:24.592Z,0.90
2023-07-21T09:56:57.492Z,1.08
2023-07-21T09:59:27.447Z,1.08
2023-07-21T10:02:00.315Z,1.00
2023-07-21T10:04:32.342Z,0.82
2023-07-21T10:07:04.160Z,1.20
2023-07-21T10:09:34.016Z,0.90
2023-07-21T10:12:15.452Z,1.00
2023-07-21T10:14:45.818Z,0.82
2023-07-21T10:17:29.676Z,0.75
2023-07-21T10:20:13.197Z,0.90
2023-07-21T10:22:42.638Z,0.98
2023-07-21T10:25:14.139Z,1.00
2023-07-21T10:27:43.521Z,1.17
2023-07-21T10:30:23.647Z,0.90
2023-07-21T10:32:57.514Z,1.02
2023-07-21T10:35:39.995Z,0.90
2023-07-21T10:38:23.465Z,0.65
2023-07-21T10:40:52.900Z,0.85
2023-07-21T10:43:22.465Z,1.20
2023-07-21T10:45:56.345Z,1.00
2023-07-21T10:48:28.943Z,0.90
2023-07-21T10:51:00.273Z,0.90
2023-07-21T10:53:30.061Z,1.10
2023-07-21T10:56:03.322Z,0.88
2023-07-21T10:58:35.197Z,0.60
2023-07-21T11:01:04.724Z,0.80
2023-07-21T11:03:36.729Z,1.00
2023-07-21T11:06:06.342Z,1.08
2023-07-21T11:08:35.684Z,0.93
2023-07-21T11:11:05.380Z,0.98
2023-07-21T11:13:34.975Z,0.82
2023-07-21T11:16:04.665Z,1.10
2023-07-21T11:18:36.782Z,0.93
2023-07-21T11:21:06.052Z,0.93
2023-07-21T11:23:35.473Z,1.08
2023-07-21T11:26:10.889Z,1.10
2023-07-21T11:28:43.178Z,0.70
2023-07-21T11:31:16.845Z,1.13
2023-07-21T11:33:50.696Z,1.00
2023-07-21T11:36:22.962Z,0.85
2023-07-21T11:39:04.106Z,1.00
2023-07-21T11:41:41.003Z,0.95
2023-07-21T11:44:12.986Z,1.00
2023-07-21T11:46:42.513Z,0.93
2023-07-21T11:49:17.730Z,0.90
2023-07-21T11:51:47.278Z,0.93
2023-07-21T11:54:24.230Z,0.88
2023-07-21T11:56:54.945Z,1.08
2023-07-21T11:59:25.411Z,0.80
2023-07-21T12:01:55.092Z,0.80
2023-07-21T12:04:29.120Z,1.08
2023-07-21T12:06:58.800Z,0.90
2023-07-21T12:09:28.529Z,0.98
2023-07-21T12:11:59.564Z,1.20
2023-07-21T12:14:29.021Z,0.90
2023-07-21T12:16:58.507Z,1.10
2023-07-21T12:19:30.579Z,1.00
2023-07-21T12:21:59.924Z,0.73
2023-07-21T12:24:29.296Z,1.10
2023-07-21T12:26:58.729Z,1.02
2023-07-21T12:29:42.711Z,1.02
2023-07-21T12:32:14.246Z,0.93
2023-07-21T12:34:46.601Z,0.80
2023-07-21T12:37:16.059Z,1.10
2023-07-21T12:39:47.545Z,0.90
2023-07-21T12:42:16.933Z,0.90
2023-07-21T12:44:46.755Z,0.93
2023-07-21T12:47:16.180Z,0.77
2023-07-21T12:49:48.128Z,0.90
2023-07-21T12:52:17.481Z,0.80
2023-07-21T12:54:47.190Z,0.90
2023-07-21T12:57:16.666Z,0.85
2023-07-21T12:59:46.071Z,0.90
2023-07-21T13:02:15.465Z,0.80
2023-07-21T13:04:45.002Z,0.88
2023-07-21T13:07:17.040Z,0.95
2023-07-21T13:09:46.610Z,1.08
2023-07-21T13:12:17.034Z,1.00
2023-07-21T13:14:46.449Z,0.82
2023-07-21T13:17:16.004Z,1.10
2023-07-21T13:19:45.443Z,1.08
2023-07-21T13:22:17.432Z,1.02
2023-07-21T13:24:47.718Z,1.10
2023-07-21T13:27:17.423Z,1.10
2023-07-21T13:29:48.162Z,0.90
2023-07-21T13:32:17.637Z,1.00
2023-07-21T13:34:47.544Z,0.90
2023-07-21T13:37:19.528Z,0.80
2023-07-21T13:39:48.891Z,0.80
2023-07-21T13:42:18.236Z,0.82
2023-07-21T13:44:48.333Z,0.88
2023-07-21T13:47:18.066Z,0.93
2023-07-21T13:49:47.471Z,0.77
2023-07-21T13:52:19.738Z,0.90
2023-07-21T13:54:49.263Z,0.90
2023-07-21T13:57:19.084Z,1.13
2023-07-21T13:59:48.570Z,0.80
2023-07-21T14:02:17.961Z,0.82
2023-07-21T14:07:20.241Z,0.73
2023-07-21T14:09:50.094Z,0.90
2023-07-21T14:12:19.850Z,0.80
2023-07-21T14:14:49.700Z,0.90
2023-07-21T14:17:19.605Z,1.00
2023-07-21T14:19:49.532Z,0.90
2023-07-21T14:22:21.445Z,0.90
2023-07-21T14:24:50.851Z,1.10
2023-07-21T14:27:20.216Z,1.08
2023-07-21T14:29:49.551Z,1.00
2023-07-21T14:32:18.973Z,1.00
2023-07-21T14:34:48.528Z,0.93
2023-07-21T14:37:18.105Z,1.10
2023-07-21T14:39:50.552Z,0.98
2023-07-21T14:42:21.169Z,1.10
2023-07-21T14:44:50.831Z,1.00
2023-07-21T14:47:20.988Z,1.15
2023-07-21T14:49:50.444Z,1.02
2023-07-21T14:52:19.840Z,1.15
2023-07-21T14:54:51.881Z,1.10
2023-07-21T14:57:21.325Z,1.08
2023-07-21T14:59:50.768Z,1.00
2023-07-21T15:02:22.175Z,1.10
2023-07-21T15:04:51.577Z,1.05
2023-07-21T15:07:21.040Z,0.90
2023-07-21T15:09:53.180Z,1.10
2023-07-21T15:12:22.580Z,0.88
2023-07-21T15:14:51.934Z,1.00
2023-07-21T15:17:21.359Z,1.00
2023-07-21T15:19:51.167Z,1.10
2023-07-21T15:22:20.745Z,0.80
2023-07-21T15:24:52.921Z,0.85
2023-07-21T15:27:22.333Z,0.88
2023-07-21T15:29:53.199Z,0.82
2023-07-21T15:32:22.674Z,1.05
2023-07-21T15:34:52.189Z,0.80
2023-07-21T15:37:21.881Z,0.80
2023-07-21T15:39:53.877Z,1.00
2023-07-21T15:42:23.707Z,0.90
2023-07-21T15:44:53.033Z,0.80
2023-07-21T15:47:22.458Z,0.98
2023-07-21T15:49:53.146Z,0.70
2023-07-21T15:52:22.505Z,0.95
2023-07-21T15:54:54.491Z,0.90
2023-07-21T15:57:23.821Z,1.08
2023-07-21T15:59:53.598Z,0.90
2023-07-21T16:02:23.000Z,0.70
2023-07-21T16:04:53.374Z,0.95
2023-07-21T16:07:23.568Z,0.90
2023-07-21T16:09:56.211Z,0.80
2023-07-21T16:12:25.786Z,1.05
2023-07-21T16:14:55.194Z,0.75
2023-07-21T16:17:24.576Z,0.90
2023-07-21T16:19:54.294Z,0.90
2023-07-21T16:22:24.145Z,1.05
2023-07-21T16:24:56.943Z,1.05
2023-07-21T16:27:26.591Z,0.90
2023-07-21T16:29:56.147Z,0.77
2023-07-21T16:32:25.858Z,1.00
2023-07-21T16:34:55.790Z,0.90
2023-07-21T16:37:25.321Z,0.90
2023-07-21T16:40:01.484Z,0.85
2023-07-21T16:42:32.768Z,1.10
2023-07-21T16:45:02.789Z,1.00
2023-07-21T16:47:32.255Z,1.13
2023-07-21T16:50:01.693Z,0.88
2023-07-21T16:52:31.299Z,0.90
2023-07-21T16:55:03.562Z,0.90
2023-07-21T16:57:33.068Z,0.90
2023-07-21T17:00:11.400Z,1.00
2023-07-21T17:02:42.093Z,0.98
2023-07-21T17:07:44.083Z,0.85
2023-07-21T17:10:16.516Z,0.90
2023-07-21T17:12:45.875Z,0.85
2023-07-21T17:15:15.379Z,1.00
2023-07-21T17:17:45.081Z,0.98
2023-07-21T17:20:15.745Z,0.90
2023-07-21T17:22:47.173Z,1.00
2023-07-21T17:25:19.911Z,0.77
2023-07-21T17:27:49.704Z,1.00
2023-07-21T17:30:19.155Z,0.93
2023-07-21T17:32:48.558Z,0.70
2023-07-21T17:35:17.947Z,0.80
2023-07-21T17:37:47.448Z,1.00
2023-07-21T17:40:19.423Z,0.80
2023-07-21T17:42:48.875Z,0.90
2023-07-21T17:45:19.476Z,0.80
2023-07-21T17:47:48.872Z,0.80
2023-07-21T17:50:18.262Z,0.90
2023-07-21T17:52:48.167Z,1.00
2023-07-21T17:55:20.340Z,0.80
2023-07-21T17:57:50.207Z,0.80
2023-07-21T18:00:21.502Z,0.98
2023-07-21T18:02:50.931Z,0.90
2023-07-21T18:05:21.588Z,0.90
2023-07-21T18:07:51.026Z,0.82
2023-07-21T18:10:23.136Z,0.90
2023-07-21T18:12:52.565Z,0.90
2023-07-21T18:15:21.950Z,0.90
2023-07-21T18:17:51.536Z,0.85
2023-07-21T18:20:22.405Z,0.63
2023-07-21T18:22:51.973Z,0.63
2023-07-21T18:25:23.970Z,0.70
2023-07-21T18:27:53.304Z,0.50
2023-07-21T18:30:22.902Z,0.32
2023-07-21T18:32:53.018Z,0.50
2023-07-21T18:35:27.335Z,0.50
2023-07-21T18:37:56.729Z,0.50
2023-07-21T18:40:29.058Z,0.50
2023-07-21T18:42:58.426Z,0.43
2023-07-21T18:45:27.916Z,0.45
2023-07-21T18:47:58.340Z,0.52
2023-07-21T18:50:27.721Z,0.50
2023-07-21T18:52:59.715Z,0.60
2023-07-21T18:55:31.649Z,0.50
2023-07-21T18:58:04.409Z,0.40
2023-07-21T19:00:33.806Z,0.70
2023-07-21T19:03:03.258Z,0.63
2023-07-21T19:05:33.558Z,0.50
2023-07-21T19:08:03.022Z,0.73
2023-07-21T19:10:36.734Z,0.70
2023-07-21T19:13:06.162Z,0.63
2023-07-21T19:15:35.642Z,0.70
2023-07-21T19:18:07.356Z,0.88
2023-07-21T19:20:36.864Z,0.70
2023-07-21T19:23:07.648Z,0.68
2023-07-21T19:25:41.010Z,0.70
2023-07-21T19:28:10.420Z,0.65
2023-07-21T19:30:42.552Z,0.90
2023-07-21T19:33:12.268Z,0.60
2023-07-21T19:35:41.764Z,0.80
2023-07-21T19:38:11.232Z,0.65
2023-07-21T19:40:44.375Z,0.70
2023-07-21T19:43:13.767Z,0.70
2023-07-21T19:45:43.226Z,0.68
2023-07-21T19:48:13.450Z,0.80
2023-07-21T19:50:43.318Z,0.82
2023-07-21T19:53:12.718Z,0.98
2023-07-21T19:55:44.716Z,0.85
2023-07-21T19:58:14.710Z,0.98
2023-07-21T20:00:46.186Z,0.88
2023-07-21T20:03:16.058Z,0.77
2023-07-21T20:05:46.565Z,0.95
2023-07-21T20:08:16.158Z,0.90
2023-07-21T20:10:51.206Z,0.90
2023-07-21T20:13:20.706Z,0.68
2023-07-21T20:15:50.176Z,0.82
2023-07-21T20:18:20.900Z,0.80
2023-07-21T20:20:50.265Z,0.77
2023-07-21T20:23:19.936Z,0.82
2023-07-21T20:25:52.082Z,1.05
2023-07-21T20:28:21.454Z,0.80
2023-07-21T20:30:50.815Z,0.90
2023-07-21T20:33:20.211Z,1.00
2023-07-21T20:35:50.737Z,0.70
2023-07-21T20:38:20.534Z,0.90
2023-07-21T20:40:53.305Z,0.73
2023-07-21T20:43:22.761Z,0.80
2023-07-21T20:45:52.142Z,0.77
2023-07-21T20:48:21.646Z,1.00
2023-07-21T20:50:51.245Z,0.90
2023-07-21T20:53:20.578Z,0.90
2023-07-21T20:55:54.045Z,1.00
2023-07-21T20:58:23.933Z,0.60
2023-07-21T21:00:54.546Z,0.80
2023-07-21T21:03:24.111Z,0.95
2023-07-21T21:05:59.239Z,0.73
2023-07-21T21:08:28.918Z,1.20
2023-07-21T21:11:00.926Z,0.70
2023-07-21T21:13:30.344Z,1.00
2023-07-21T21:15:59.856Z,0.90
2023-07-21T21:18:29.385Z,0.65
2023-07-21T21:20:58.789Z,1.00
2023-07-21T21:23:28.211Z,1.00
2023-07-21T21:25:58.380Z,1.05
2023-07-21T21:28:30.889Z,1.05
2023-07-21T21:31:00.736Z,0.70
2023-07-21T21:33:30.499Z,0.85
2023-07-21T21:36:00.559Z,0.95
2023-07-21T21:38:30.192Z,0.88
2023-07-21T21:40:59.976Z,0.80
2023-07-21T21:43:32.051Z,0.95
2023-07-21T21:46:01.565Z,1.10
2023-07-21T21:48:31.019Z,0.65
2023-07-21T21:51:01.098Z,0.95
2023-07-21T21:53:33.629Z,0.88
2023-07-21T21:56:04.223Z,1.08
2023-07-21T21:58:36.293Z,1.08
2023-07-21T22:01:05.934Z,0.90
2023-07-21T22:03:39.062Z,0.95
2023-07-21T22:06:08.535Z,1.15
2023-07-21T22:08:38.103Z,0.90
2023-07-21T22:11:08.123Z,0.88
2023-07-21T22:13:40.514Z,1.02
2023-07-21T22:16:09.982Z,1.05
2023-07-21T22:18:39.354Z,1.08
2023-07-21T22:21:08.728Z,1.02
2023-07-21T22:23:38.514Z,1.08
2023-07-21T22:26:08.883Z,0.93
2023-07-21T22:28:41.069Z,1.05
2023-07-21T22:31:16.645Z,1.10
2023-07-21T22:33:47.117Z,1.13
2023-07-21T22:36:17.894Z,1.27
2023-07-21T22:38:47.286Z,0.90
2023-07-21T22:41:16.698Z,1.10
2023-07-21T22:43:48.677Z,0.90
2023-07-21T22:46:18.085Z,1.40
2023-07-21T22:48:47.496Z,0.95
2023-07-21T22:51:17.182Z,1.00
2023-07-21T22:53:47.043Z,0.98
2023-07-21T22:56:16.460Z,0.80
2023-07-21T22:58:48.606Z,1.40
2023-07-21T23:01:18.051Z,1.27
2023-07-21T23:03:47.426Z,1.10
2023-07-21T23:06:16.849Z,1.23
2023-07-21T23:08:46.383Z,1.25
2023-07-21T23:11:15.718Z,1.45
2023-07-21T23:13:45.085Z,1.40
2023-07-21T23:16:17.127Z,0.90
2023-07-21T23:18:46.673Z,1.02
2023-07-21T23:21:16.021Z,1.30
2023-07-21T23:23:45.392Z,1.30
2023-07-21T23:26:14.928Z,1.40
2023-07-21T23:28:44.300Z,1.20
2023-07-21T23:31:13.658Z,1.30
2023-07-21T23:33:45.669Z,1.33
2023-07-21T23:36:14.988Z,1.10
2023-07-21T23:38:44.342Z,1.30
2023-07-21T23:41:13.712Z,1.30
2023-07-21T23:43:43.053Z,1.13
2023-07-21T23:46:12.528Z,1.38
2023-07-21T23:48:42.177Z,1.40
2023-07-21T23:51:14.097Z,1.27
2023-07-21T23:53:43.456Z,1.25
2023-07-21T23:56:12.981Z,1.48
2023-07-21T23:58:45.176Z,1.52
